sensor_id;sensor_type;location;lat;lon;timestamp;pressure;altitude;pressure_sealevel;temperature;humidity
17615;BME280;8926;49.720;6.576;2023-05-20T00:01:23;100013.13;;;16.57;45.73
17615;BME280;8926;49.720;6.576;2023-05-20T00:03:48;100019.25;;;16.58;45.77
17615;BME280;8926;49.720;6.576;2023-05-20T00:06:14;100019.25;;;16.58;45.76
17615;BME280;8926;49.720;6.576;2023-05-20T00:08:39;100012.31;;;16.57;45.90
17615;BME280;8926;49.720;6.576;2023-05-20T00:11:04;100013.97;;;16.58;45.81
17615;BME280;8926;49.720;6.576;2023-05-20T00:13:30;100013.38;;;16.54;46.10
17615;BME280;8926;49.720;6.576;2023-05-20T00:15:55;100018.75;;;16.53;46.13
17615;BME280;8926;49.720;6.576;2023-05-20T00:18:21;100011.09;;;16.50;46.13
17615;BME280;8926;49.720;6.576;2023-05-20T00:20:46;100010.47;;;16.46;46.18
17615;BME280;8926;49.720;6.576;2023-05-20T00:23:11;100013.00;;;16.48;46.01
17615;BME280;8926;49.720;6.576;2023-05-20T00:25:37;100014.78;;;16.47;46.04
17615;BME280;8926;49.720;6.576;2023-05-20T00:28:02;100015.16;;;16.43;46.42
17615;BME280;8926;49.720;6.576;2023-05-20T00:30:28;100016.94;;;16.42;46.06
17615;BME280;8926;49.720;6.576;2023-05-20T00:32:53;100015.16;;;16.43;46.55
17615;BME280;8926;49.720;6.576;2023-05-20T00:35:18;100009.88;;;16.43;46.24
17615;BME280;8926;49.720;6.576;2023-05-20T00:37:44;100012.28;;;16.35;46.80
17615;BME280;8926;49.720;6.576;2023-05-20T00:40:12;100018.50;;;16.34;47.00
17615;BME280;8926;49.720;6.576;2023-05-20T00:42:37;100005.31;;;16.34;46.94
17615;BME280;8926;49.720;6.576;2023-05-20T00:45:03;99998.13;;;16.36;46.64
17615;BME280;8926;49.720;6.576;2023-05-20T00:47:31;100008.06;;;16.32;47.15
17615;BME280;8926;49.720;6.576;2023-05-20T00:49:58;100001.00;;;16.33;47.10
17615;BME280;8926;49.720;6.576;2023-05-20T00:52:24;99999.22;;;16.33;46.75
17615;BME280;8926;49.720;6.576;2023-05-20T00:54:50;100005.78;;;16.27;47.15
17615;BME280;8926;49.720;6.576;2023-05-20T00:57:18;100000.50;;;16.27;47.27
17615;BME280;8926;49.720;6.576;2023-05-20T00:59:43;99993.31;;;16.29;46.98
17615;BME280;8926;49.720;6.576;2023-05-20T01:02:09;99995.47;;;16.24;47.43
17615;BME280;8926;49.720;6.576;2023-05-20T01:04:35;99996.91;;;16.28;47.56
17615;BME280;8926;49.720;6.576;2023-05-20T01:07:02;99995.47;;;16.24;47.64
17615;BME280;8926;49.720;6.576;2023-05-20T01:09:29;99994.75;;;16.22;47.49
17615;BME280;8926;49.720;6.576;2023-05-20T01:12:11;99986.84;;;16.22;47.57
17615;BME280;8926;49.720;6.576;2023-05-20T01:14:44;99993.06;;;16.21;47.89
17615;BME280;8926;49.720;6.576;2023-05-20T01:17:12;99988.50;;;16.23;47.62
17615;BME280;8926;49.720;6.576;2023-05-20T01:19:43;99986.84;;;16.22;48.26
17615;BME280;8926;49.720;6.576;2023-05-20T01:22:10;99992.09;;;16.22;48.07
17615;BME280;8926;49.720;6.576;2023-05-20T01:24:43;99992.09;;;16.22;47.72
17615;BME280;8926;49.720;6.576;2023-05-20T01:27:10;99990.66;;;16.18;48.21
17615;BME280;8926;49.720;6.576;2023-05-20T01:29:36;99984.53;;;16.18;47.65
17615;BME280;8926;49.720;6.576;2023-05-20T01:32:26;99983.94;;;16.14;48.08
17615;BME280;8926;49.720;6.576;2023-05-20T01:34:51;99984.16;;;16.11;48.00
17615;BME280;8926;49.720;6.576;2023-05-20T01:37:18;99978.19;;;16.09;48.34
17615;BME280;8926;49.720;6.576;2023-05-20T01:39:44;99981.91;;;16.07;48.67
17615;BME280;8926;49.720;6.576;2023-05-20T01:42:10;99987.78;;;16.10;48.41
17615;BME280;8926;49.720;6.576;2023-05-20T01:44:38;99983.56;;;16.08;48.83
17615;BME280;8926;49.720;6.576;2023-05-20T01:47:03;99981.66;;;16.10;48.47
17615;BME280;8926;49.720;6.576;2023-05-20T01:49:29;99974.09;;;16.05;48.89
17615;BME280;8926;49.720;6.576;2023-05-20T01:51:54;99968.84;;;16.05;48.59
17615;BME280;8926;49.720;6.576;2023-05-20T01:54:20;99976.00;;;16.03;48.88
17615;BME280;8926;49.720;6.576;2023-05-20T01:56:45;99970.75;;;16.03;48.48
17615;BME280;8926;49.720;6.576;2023-05-20T01:59:11;99966.78;;;15.98;48.84
17615;BME280;8926;49.720;6.576;2023-05-20T02:01:37;99969.50;;;15.96;49.02
17615;BME280;8926;49.720;6.576;2023-05-20T02:04:02;99966.16;;;15.94;48.61
17615;BME280;8926;49.720;6.576;2023-05-20T02:06:27;99958.59;;;15.89;49.39
17615;BME280;8926;49.720;6.576;2023-05-20T02:08:53;99963.03;;;15.89;49.09
17615;BME280;8926;49.720;6.576;2023-05-20T02:11:18;99964.22;;;15.85;49.44
17615;BME280;8926;49.720;6.576;2023-05-20T02:13:43;99959.91;;;15.84;49.54
17615;BME280;8926;49.720;6.576;2023-05-20T02:16:09;99964.22;;;15.85;49.36
17615;BME280;8926;49.720;6.576;2023-05-20T02:18:34;99960.16;;;15.81;49.39
17615;BME280;8926;49.720;6.576;2023-05-20T02:21:03;99964.81;;;15.77;49.69
17615;BME280;8926;49.720;6.576;2023-05-20T02:23:32;99967.53;;;15.76;49.44
17615;BME280;8926;49.720;6.576;2023-05-20T02:25:57;99967.78;;;15.73;50.04
17615;BME280;8926;49.720;6.576;2023-05-20T02:28:22;99971.13;;;15.75;49.96
17615;BME280;8926;49.720;6.576;2023-05-20T02:30:48;99968.59;;;15.73;49.92
17615;BME280;8926;49.720;6.576;2023-05-20T02:33:15;99966.09;;;15.72;49.72
17615;BME280;8926;49.720;6.576;2023-05-20T02:35:41;99957.69;;;15.67;50.05
17615;BME280;8926;49.720;6.576;2023-05-20T02:38:06;99965.69;;;15.65;50.28
17615;BME280;8926;49.720;6.576;2023-05-20T02:40:31;99961.50;;;15.63;50.79
17615;BME280;8926;49.720;6.576;2023-05-20T02:42:58;99964.84;;;15.65;50.36
17615;BME280;8926;49.720;6.576;2023-05-20T02:45:24;99966.75;;;15.63;50.55
17615;BME280;8926;49.720;6.576;2023-05-20T02:47:49;99965.06;;;15.61;50.43
17615;BME280;8926;49.720;6.576;2023-05-20T02:50:14;99963.66;;;15.57;50.60
17615;BME280;8926;49.720;6.576;2023-05-20T02:52:40;99970.59;;;15.58;50.56
17615;BME280;8926;49.720;6.576;2023-05-20T02:55:07;99958.78;;;15.51;50.66
17615;BME280;8926;49.720;6.576;2023-05-20T02:57:32;99953.53;;;15.51;50.87
17615;BME280;8926;49.720;6.576;2023-05-20T02:59:59;99952.06;;;15.47;51.10
17615;BME280;8926;49.720;6.576;2023-05-20T03:02:24;99955.66;;;15.46;51.35
17615;BME280;8926;49.720;6.576;2023-05-20T03:04:49;99955.66;;;15.46;51.32
17615;BME280;8926;49.720;6.576;2023-05-20T03:07:17;99952.63;;;15.40;51.50
17615;BME280;8926;49.720;6.576;2023-05-20T03:09:45;99959.91;;;15.36;51.80
17615;BME280;8926;49.720;6.576;2023-05-20T03:12:11;99954.84;;;15.33;51.63
17615;BME280;8926;49.720;6.576;2023-05-20T03:14:36;99957.63;;;15.32;52.34
17615;BME280;8926;49.720;6.576;2023-05-20T03:17:01;99962.06;;;15.31;51.50
17615;BME280;8926;49.720;6.576;2023-05-20T03:19:27;99961.09;;;15.32;51.58
17615;BME280;8926;49.720;6.576;2023-05-20T03:21:52;99957.00;;;15.28;52.36
17615;BME280;8926;49.720;6.576;2023-05-20T03:24:17;99962.91;;;15.32;51.89
17615;BME280;8926;49.720;6.576;2023-05-20T03:26:42;99967.31;;;15.31;51.61
17615;BME280;8926;49.720;6.576;2023-05-20T03:29:11;99969.97;;;15.31;52.44
17615;BME280;8926;49.720;6.576;2023-05-20T03:31:36;99957.84;;;15.28;52.42
17615;BME280;8926;49.720;6.576;2023-05-20T03:34:02;99959.31;;;15.33;52.33
17615;BME280;8926;49.720;6.576;2023-05-20T03:36:27;99958.69;;;15.29;53.10
17615;BME280;8926;49.720;6.576;2023-05-20T03:38:53;99958.91;;;15.26;52.49
17615;BME280;8926;49.720;6.576;2023-05-20T03:41:18;99955.56;;;15.24;53.11
17615;BME280;8926;49.720;6.576;2023-05-20T03:43:43;99955.78;;;15.21;52.80
17615;BME280;8926;49.720;6.576;2023-05-20T03:46:08;99955.78;;;15.21;53.01
17615;BME280;8926;49.720;6.576;2023-05-20T03:48:34;99954.81;;;15.22;52.49
17615;BME280;8926;49.720;6.576;2023-05-20T03:51:00;99952.41;;;15.19;52.95
17615;BME280;8926;49.720;6.576;2023-05-20T03:53:26;99952.41;;;15.19;52.76
17615;BME280;8926;49.720;6.576;2023-05-20T03:55:51;99955.25;;;15.16;53.23
17615;BME280;8926;49.720;6.576;2023-05-20T03:58:16;99947.34;;;15.16;52.97
17615;BME280;8926;49.720;6.576;2023-05-20T04:00:42;99950.94;;;15.15;53.07
17615;BME280;8926;49.720;6.576;2023-05-20T04:03:07;99951.38;;;15.09;53.44
17615;BME280;8926;49.720;6.576;2023-05-20T04:05:34;99952.09;;;15.11;53.48
17615;BME280;8926;49.720;6.576;2023-05-20T04:08:00;99956.41;;;15.12;53.45
17615;BME280;8926;49.720;6.576;2023-05-20T04:10:25;99951.16;;;15.12;53.67
17615;BME280;8926;49.720;6.576;2023-05-20T04:12:50;99951.16;;;15.12;53.81
17615;BME280;8926;49.720;6.576;2023-05-20T04:15:17;99950.31;;;15.11;53.79
17615;BME280;8926;49.720;6.576;2023-05-20T04:17:43;99957.16;;;15.14;54.63
17615;BME280;8926;49.720;6.576;2023-05-20T04:20:12;99952.19;;;15.22;53.65
17615;BME280;8926;49.720;6.576;2023-05-20T04:22:38;99948.16;;;15.29;53.60
17615;BME280;8926;49.720;6.576;2023-05-20T04:25:04;99944.72;;;15.40;53.27
17615;BME280;8926;49.720;6.576;2023-05-20T04:27:30;99945.97;;;15.47;53.26
17615;BME280;8926;49.720;6.576;2023-05-20T04:29:57;99949.94;;;15.52;53.24
17615;BME280;8926;49.720;6.576;2023-05-20T04:32:23;99953.31;;;15.54;53.13
17615;BME280;8926;49.720;6.576;2023-05-20T04:34:48;99946.16;;;15.56;52.79
17615;BME280;8926;49.720;6.576;2023-05-20T04:37:14;99956.22;;;15.63;53.13
17615;BME280;8926;49.720;6.576;2023-05-20T04:39:40;99954.94;;;15.68;53.12
17615;BME280;8926;49.720;6.576;2023-05-20T04:42:07;99949.84;;;15.78;52.87
17615;BME280;8926;49.720;6.576;2023-05-20T04:44:33;99949.38;;;15.84;53.01
17615;BME280;8926;49.720;6.576;2023-05-20T04:46:58;99948.09;;;16.01;52.60
17615;BME280;8926;49.720;6.576;2023-05-20T04:49:24;99945.72;;;16.20;52.15
17615;BME280;8926;49.720;6.576;2023-05-20T04:51:53;99932.66;;;16.41;51.61
17615;BME280;8926;49.720;6.576;2023-05-20T04:54:19;99938.09;;;16.50;51.39
17615;BME280;8926;49.720;6.576;2023-05-20T04:56:45;99941.09;;;16.68;51.01
17615;BME280;8926;49.720;6.576;2023-05-20T04:59:11;99930.31;;;16.82;50.90
17615;BME280;8926;49.720;6.576;2023-05-20T05:01:36;99929.53;;;17.03;50.50
17615;BME280;8926;49.720;6.576;2023-05-20T05:04:01;99930.09;;;17.17;50.47
17615;BME280;8926;49.720;6.576;2023-05-20T05:06:27;99927.78;;;17.35;49.79
17615;BME280;8926;49.720;6.576;2023-05-20T05:08:53;99934.38;;;17.41;49.63
17615;BME280;8926;49.720;6.576;2023-05-20T05:11:18;99924.69;;;17.51;49.60
17615;BME280;8926;49.720;6.576;2023-05-20T05:13:43;99922.16;;;17.60;49.80
17615;BME280;8926;49.720;6.576;2023-05-20T05:16:09;99932.09;;;17.68;48.92
17615;BME280;8926;49.720;6.576;2023-05-20T05:18:34;99925.22;;;17.77;48.91
17615;BME280;8926;49.720;6.576;2023-05-20T05:21:03;99927.81;;;17.88;49.14
17615;BME280;8926;49.720;6.576;2023-05-20T05:23:29;99929.97;;;17.83;48.71
17615;BME280;8926;49.720;6.576;2023-05-20T05:25:55;99929.41;;;17.79;49.08
17615;BME280;8926;49.720;6.576;2023-05-20T05:28:21;99932.09;;;17.68;49.01
17615;BME280;8926;49.720;6.576;2023-05-20T05:30:47;99926.97;;;17.55;49.34
17615;BME280;8926;49.720;6.576;2023-05-20T05:33:13;99928.88;;;17.53;49.41
17615;BME280;8926;49.720;6.576;2023-05-20T05:35:40;99930.81;;;17.51;49.57
17615;BME280;8926;49.720;6.576;2023-05-20T05:38:05;99933.00;;;17.46;49.57
17615;BME280;8926;49.720;6.576;2023-05-20T05:40:31;99936.66;;;17.34;50.12
17615;BME280;8926;49.720;6.576;2023-05-20T05:42:56;99930.91;;;17.29;49.98
17615;BME280;8926;49.720;6.576;2023-05-20T05:45:22;99937.75;;;17.20;50.37
17615;BME280;8926;49.720;6.576;2023-05-20T05:47:47;99940.78;;;17.16;50.61
17615;BME280;8926;49.720;6.576;2023-05-20T05:50:12;99936.94;;;17.20;50.38
17615;BME280;8926;49.720;6.576;2023-05-20T05:52:37;99944.66;;;17.12;50.82
17615;BME280;8926;49.720;6.576;2023-05-20T05:55:03;99933.25;;;17.11;50.88
17615;BME280;8926;49.720;6.576;2023-05-20T05:57:29;99942.00;;;17.12;50.97
17615;BME280;8926;49.720;6.576;2023-05-20T05:59:54;99931.66;;;17.20;50.54
17615;BME280;8926;49.720;6.576;2023-05-20T06:02:21;99936.94;;;17.20;51.59
17615;BME280;8926;49.720;6.576;2023-05-20T06:04:46;99934.97;;;17.33;52.35
17615;BME280;8926;49.720;6.576;2023-05-20T06:07:11;99933.25;;;17.43;52.34
17615;BME280;8926;49.720;6.576;2023-05-20T06:09:37;99931.31;;;17.45;52.00
17615;BME280;8926;49.720;6.576;2023-05-20T06:12:03;99933.00;;;17.46;51.47
17615;BME280;8926;49.720;6.576;2023-05-20T06:14:28;99928.97;;;17.31;51.09
17615;BME280;8926;49.720;6.576;2023-05-20T06:16:54;99927.56;;;17.16;51.21
17615;BME280;8926;49.720;6.576;2023-05-20T06:19:19;99925.69;;;17.07;51.72
17615;BME280;8926;49.720;6.576;2023-05-20T06:21:44;99926.31;;;16.99;51.70
17615;BME280;8926;49.720;6.576;2023-05-20T06:24:10;99931.94;;;17.06;51.87
17615;BME280;8926;49.720;6.576;2023-05-20T06:26:35;99933.25;;;17.11;51.67
17615;BME280;8926;49.720;6.576;2023-05-20T06:29:01;99923.84;;;17.18;51.46
17615;BME280;8926;49.720;6.576;2023-05-20T06:31:27;99925.53;;;17.19;51.78
17615;BME280;8926;49.720;6.576;2023-05-20T06:33:54;99928.88;;;17.21;51.64
17615;BME280;8926;49.720;6.576;2023-05-20T06:36:19;99922.50;;;17.24;52.43
17615;BME280;8926;49.720;6.576;2023-05-20T06:38:45;99915.28;;;17.37;51.70
17615;BME280;8926;49.720;6.576;2023-05-20T06:41:10;99908.75;;;17.41;51.56
17615;BME280;8926;49.720;6.576;2023-05-20T06:43:35;99905.44;;;17.39;51.47
17615;BME280;8926;49.720;6.576;2023-05-20T06:46:01;99899.69;;;17.34;51.22
17615;BME280;8926;49.720;6.576;2023-05-20T06:48:26;99915.31;;;17.26;51.77
17615;BME280;8926;49.720;6.576;2023-05-20T06:50:52;99898.28;;;17.19;51.93
17615;BME280;8926;49.720;6.576;2023-05-20T06:53:17;99903.56;;;17.19;52.70
17615;BME280;8926;49.720;6.576;2023-05-20T06:55:42;99899.09;;;17.30;52.05
17615;BME280;8926;49.720;6.576;2023-05-20T06:58:08;99899.69;;;17.34;52.08
17615;BME280;8926;49.720;6.576;2023-05-20T07:00:33;99895.38;;;17.33;52.77
17615;BME280;8926;49.720;6.576;2023-05-20T07:02:58;99889.91;;;17.46;51.95
17615;BME280;8926;49.720;6.576;2023-05-20T07:05:24;99884.03;;;17.42;52.27
17615;BME280;8926;49.720;6.576;2023-05-20T07:07:50;99884.63;;;17.46;52.20
17615;BME280;8926;49.720;6.576;2023-05-20T07:10:15;99886.97;;;17.60;51.99
17615;BME280;8926;49.720;6.576;2023-05-20T07:12:40;99885.53;;;17.97;51.22
17615;BME280;8926;49.720;6.576;2023-05-20T07:15:06;99881.28;;;18.37;51.21
17615;BME280;8926;49.720;6.576;2023-05-20T07:17:32;99867.22;;;18.76;50.56
17615;BME280;8926;49.720;6.576;2023-05-20T07:19:57;99868.13;;;19.15;49.57
17615;BME280;8926;49.720;6.576;2023-05-20T07:22:22;99860.56;;;19.49;49.14
17615;BME280;8926;49.720;6.576;2023-05-20T07:24:48;99859.72;;;19.78;48.59
17615;BME280;8926;49.720;6.576;2023-05-20T07:27:13;99873.94;;;19.96;48.10
17615;BME280;8926;49.720;6.576;2023-05-20T07:29:38;99855.19;;;20.07;47.93
17615;BME280;8926;49.720;6.576;2023-05-20T07:32:04;99854.34;;;20.07;47.56
17615;BME280;8926;49.720;6.576;2023-05-20T07:34:30;99842.03;;;20.15;47.53
17615;BME280;8926;49.720;6.576;2023-05-20T07:36:56;99841.69;;;20.38;47.31
17615;BME280;8926;49.720;6.576;2023-05-20T07:39:22;99843.63;;;20.36;47.20
17615;BME280;8926;49.720;6.576;2023-05-20T07:41:48;99831.19;;;20.46;47.46
17615;BME280;8926;49.720;6.576;2023-05-20T07:44:13;99833.25;;;20.52;47.37
17615;BME280;8926;49.720;6.576;2023-05-20T07:46:39;99830.47;;;20.71;46.65
17615;BME280;8926;49.720;6.576;2023-05-20T07:49:06;99830.22;;;20.82;46.77
17615;BME280;8926;49.720;6.576;2023-05-20T07:51:31;99835.44;;;21.02;46.37
17615;BME280;8926;49.720;6.576;2023-05-20T07:53:57;99829.81;;;21.05;46.32
17615;BME280;8926;49.720;6.576;2023-05-20T07:56:22;99833.59;;;21.20;46.58
17615;BME280;8926;49.720;6.576;2023-05-20T07:58:56;99827.41;;;21.29;45.78
17615;BME280;8926;49.720;6.576;2023-05-20T08:01:22;99824.50;;;21.40;46.03
17615;BME280;8926;49.720;6.576;2023-05-20T08:03:47;99826.59;;;21.54;45.56
17615;BME280;8926;49.720;6.576;2023-05-20T08:06:13;99817.00;;;21.61;45.87
17615;BME280;8926;49.720;6.576;2023-05-20T08:08:38;99819.09;;;21.76;45.61
17615;BME280;8926;49.720;6.576;2023-05-20T08:11:06;99816.88;;;21.97;44.95
17615;BME280;8926;49.720;6.576;2023-05-20T08:13:31;99807.31;;;22.04;44.61
17615;BME280;8926;49.720;6.576;2023-05-20T08:15:57;99812.97;;;22.01;45.16
17615;BME280;8926;49.720;6.576;2023-05-20T08:18:22;99812.66;;;22.04;44.74
17615;BME280;8926;49.720;6.576;2023-05-20T08:20:47;99809.84;;;22.14;44.74
17615;BME280;8926;49.720;6.576;2023-05-20T08:23:13;99817.41;;;22.26;44.62
17615;BME280;8926;49.720;6.576;2023-05-20T08:25:38;99820.00;;;22.18;44.42
17615;BME280;8926;49.720;6.576;2023-05-20T08:28:04;99824.19;;;22.21;44.26
17615;BME280;8926;49.720;6.576;2023-05-20T08:30:31;99806.34;;;22.13;44.43
17615;BME280;8926;49.720;6.576;2023-05-20T08:32:57;99806.44;;;22.29;44.99
17615;BME280;8926;49.720;6.576;2023-05-20T08:35:23;99804.81;;;22.45;44.87
17615;BME280;8926;49.720;6.576;2023-05-20T08:37:48;99805.53;;;22.63;43.98
17615;BME280;8926;49.720;6.576;2023-05-20T08:40:14;99802.84;;;22.63;44.54
17615;BME280;8926;49.720;6.576;2023-05-20T08:42:41;99803.88;;;22.70;44.19
17615;BME280;8926;49.720;6.576;2023-05-20T08:45:10;99799.38;;;22.71;44.09
17615;BME280;8926;49.720;6.576;2023-05-20T08:47:38;99804.63;;;22.80;43.90
17615;BME280;8926;49.720;6.576;2023-05-20T08:50:05;99798.63;;;22.86;43.85
17615;BME280;8926;49.720;6.576;2023-05-20T08:52:33;99798.97;;;22.83;43.60
17615;BME280;8926;49.720;6.576;2023-05-20T08:54:59;99793.31;;;22.86;44.14
17615;BME280;8926;49.720;6.576;2023-05-20T08:57:26;99795.78;;;22.88;43.91
17615;BME280;8926;49.720;6.576;2023-05-20T08:59:52;99784.63;;;22.92;43.73
17615;BME280;8926;49.720;6.576;2023-05-20T09:02:17;99784.66;;;23.00;43.41
17615;BME280;8926;49.720;6.576;2023-05-20T09:04:42;99791.00;;;23.08;43.51
17615;BME280;8926;49.720;6.576;2023-05-20T09:07:08;99794.66;;;23.31;43.32
17615;BME280;8926;49.720;6.576;2023-05-20T09:09:34;99784.13;;;23.46;43.26
17615;BME280;8926;49.720;6.576;2023-05-20T09:12:00;99785.16;;;23.61;43.19
17615;BME280;8926;49.720;6.576;2023-05-20T09:14:27;99776.78;;;23.40;43.01
17615;BME280;8926;49.720;6.576;2023-05-20T09:16:53;99782.31;;;23.54;43.66
17615;BME280;8926;49.720;6.576;2023-05-20T09:19:21;99776.94;;;23.71;43.60
17615;BME280;8926;49.720;6.576;2023-05-20T09:21:46;99775.59;;;23.66;42.61
17615;BME280;8926;49.720;6.576;2023-05-20T09:24:12;99764.59;;;23.69;42.96
17615;BME280;8926;49.720;6.576;2023-05-20T09:26:37;99774.75;;;23.74;43.64
17615;BME280;8926;49.720;6.576;2023-05-20T09:29:02;99772.53;;;23.94;43.12
17615;BME280;8926;49.720;6.576;2023-05-20T09:31:32;99776.88;;;23.95;43.43
17615;BME280;8926;49.720;6.576;2023-05-20T09:34:02;99767.41;;;24.23;42.67
17615;BME280;8926;49.720;6.576;2023-05-20T09:36:28;99776.44;;;24.22;42.82
17615;BME280;8926;49.720;6.576;2023-05-20T09:38:57;99756.41;;;24.26;42.60
17615;BME280;8926;49.720;6.576;2023-05-20T09:41:26;99767.72;;;24.37;42.48
17615;BME280;8926;49.720;6.576;2023-05-20T09:43:58;99772.16;;;24.44;42.79
17615;BME280;8926;49.720;6.576;2023-05-20T09:46:24;99775.50;;;24.46;42.10
17615;BME280;8926;49.720;6.576;2023-05-20T09:48:50;99776.69;;;24.44;42.39
17615;BME280;8926;49.720;6.576;2023-05-20T09:51:16;99775.94;;;24.58;41.78
17615;BME280;8926;49.720;6.576;2023-05-20T09:53:42;99769.28;;;24.54;42.36
17615;BME280;8926;49.720;6.576;2023-05-20T09:56:07;99760.53;;;24.68;42.13
17615;BME280;8926;49.720;6.576;2023-05-20T09:58:34;99753.53;;;24.67;41.48
17615;BME280;8926;49.720;6.576;2023-05-20T10:01:00;99753.03;;;24.63;42.47
17615;BME280;8926;49.720;6.576;2023-05-20T10:03:26;99754.81;;;24.71;42.09
17615;BME280;8926;49.720;6.576;2023-05-20T10:11:38;99744.06;;;24.79;41.88
17615;BME280;8926;49.720;6.576;2023-05-20T10:16:54;99736.03;;;25.25;41.22
17615;BME280;8926;49.720;6.576;2023-05-20T10:22:04;99737.78;;;25.32;40.86
17615;BME280;8926;49.720;6.576;2023-05-20T10:24:31;99732.25;;;25.34;41.07
17615;BME280;8926;49.720;6.576;2023-05-20T10:26:58;99737.53;;;25.42;40.89
17615;BME280;8926;49.720;6.576;2023-05-20T10:29:24;99733.03;;;25.43;41.01
17615;BME280;8926;49.720;6.576;2023-05-20T10:31:50;99740.03;;;25.44;41.00
17615;BME280;8926;49.720;6.576;2023-05-20T10:34:18;99741.69;;;25.45;40.86
17615;BME280;8926;49.720;6.576;2023-05-20T10:36:45;99724.06;;;25.50;40.97
17615;BME280;8926;49.720;6.576;2023-05-20T10:39:15;99715.44;;;25.63;40.77
17615;BME280;8926;49.720;6.576;2023-05-20T10:41:41;99729.06;;;25.53;40.31
17615;BME280;8926;49.720;6.576;2023-05-20T10:44:07;99717.34;;;25.40;40.99
17615;BME280;8926;49.720;6.576;2023-05-20T10:46:33;99722.22;;;25.36;40.58
17615;BME280;8926;49.720;6.576;2023-05-20T10:49:02;99716.75;;;25.29;40.89
17615;BME280;8926;49.720;6.576;2023-05-20T10:51:28;99725.13;;;25.12;40.89
17615;BME280;8926;49.720;6.576;2023-05-20T10:53:54;99718.31;;;25.24;41.59
17615;BME280;8926;49.720;6.576;2023-05-20T10:56:22;99726.47;;;25.45;40.36
17615;BME280;8926;49.720;6.576;2023-05-20T10:58:48;99722.78;;;25.46;40.53
17615;BME280;8926;49.720;6.576;2023-05-20T11:01:14;99729.16;;;25.45;40.99
17615;BME280;8926;49.720;6.576;2023-05-20T11:03:40;99710.69;;;25.50;41.18
17615;BME280;8926;49.720;6.576;2023-05-20T11:06:14;99708.94;;;25.57;41.15
17615;BME280;8926;49.720;6.576;2023-05-20T11:08:40;99710.56;;;25.66;40.57
17615;BME280;8926;49.720;6.576;2023-05-20T11:11:06;99717.03;;;25.49;40.63
17615;BME280;8926;49.720;6.576;2023-05-20T11:13:32;99713.81;;;25.54;40.47
17615;BME280;8926;49.720;6.576;2023-05-20T11:15:57;99713.84;;;25.39;41.26
17615;BME280;8926;49.720;6.576;2023-05-20T11:18:26;99710.78;;;25.42;40.77
17615;BME280;8926;49.720;6.576;2023-05-20T11:20:57;99701.47;;;25.38;40.40
17615;BME280;8926;49.720;6.576;2023-05-20T11:23:23;99710.31;;;25.39;40.63
17615;BME280;8926;49.720;6.576;2023-05-20T11:25:50;99694.16;;;25.32;40.98
17615;BME280;8926;49.720;6.576;2023-05-20T11:28:18;99707.97;;;25.21;40.52
17615;BME280;8926;49.720;6.576;2023-05-20T11:30:44;99699.09;;;25.06;41.23
17615;BME280;8926;49.720;6.576;2023-05-20T11:33:14;99701.50;;;25.00;42.02
17615;BME280;8926;49.720;6.576;2023-05-20T11:35:48;99699.72;;;24.93;41.47
17615;BME280;8926;49.720;6.576;2023-05-20T11:38:14;99714.78;;;25.09;41.54
17615;BME280;8926;49.720;6.576;2023-05-20T11:40:50;99702.78;;;25.05;41.47
17615;BME280;8926;49.720;6.576;2023-05-20T11:43:15;99706.25;;;24.90;41.15
17615;BME280;8926;49.720;6.576;2023-05-20T11:45:45;99708.72;;;24.69;41.51
17615;BME280;8926;49.720;6.576;2023-05-20T11:48:11;99703.84;;;24.73;41.88
17615;BME280;8926;49.720;6.576;2023-05-20T11:50:41;99692.69;;;24.69;41.96
17615;BME280;8926;49.720;6.576;2023-05-20T11:53:09;99689.97;;;24.77;42.09
17615;BME280;8926;49.720;6.576;2023-05-20T11:55:48;99691.50;;;24.72;42.14
17615;BME280;8926;49.720;6.576;2023-05-20T11:58:18;99684.41;;;24.64;42.08
17615;BME280;8926;49.720;6.576;2023-05-20T12:00:44;99675.28;;;24.73;42.33
17615;BME280;8926;49.720;6.576;2023-05-20T12:03:09;99669.53;;;24.84;42.46
17615;BME280;8926;49.720;6.576;2023-05-20T12:05:36;99672.88;;;24.86;41.91
17615;BME280;8926;49.720;6.576;2023-05-20T12:08:01;99660.88;;;24.82;41.73
17615;BME280;8926;49.720;6.576;2023-05-20T12:10:26;99669.91;;;24.81;42.18
17615;BME280;8926;49.720;6.576;2023-05-20T12:12:52;99669.59;;;24.76;41.25
17615;BME280;8926;49.720;6.576;2023-05-20T12:15:17;99665.72;;;24.64;42.09
17615;BME280;8926;49.720;6.576;2023-05-20T12:17:47;99670.03;;;24.65;41.65
17615;BME280;8926;49.720;6.576;2023-05-20T12:20:14;99658.53;;;24.64;41.58
17615;BME280;8926;49.720;6.576;2023-05-20T12:22:41;99659.72;;;24.62;42.58
17615;BME280;8926;49.720;6.576;2023-05-20T12:25:07;99660.19;;;24.65;41.46
17615;BME280;8926;49.720;6.576;2023-05-20T12:27:33;99647.84;;;24.64;41.91
17615;BME280;8926;49.720;6.576;2023-05-20T12:29:58;99654.66;;;24.67;42.47
17615;BME280;8926;49.720;6.576;2023-05-20T12:32:24;99659.00;;;24.68;42.17
17615;BME280;8926;49.720;6.576;2023-05-20T12:34:49;99655.75;;;24.73;42.20
17615;BME280;8926;49.720;6.576;2023-05-20T12:37:15;99634.75;;;24.69;42.05
17615;BME280;8926;49.720;6.576;2023-05-20T12:39:40;99637.16;;;24.64;41.84
17615;BME280;8926;49.720;6.576;2023-05-20T12:42:05;99632.28;;;24.68;42.13
17615;BME280;8926;49.720;6.576;2023-05-20T12:44:31;99638.03;;;24.57;42.60
17615;BME280;8926;49.720;6.576;2023-05-20T12:46:56;99642.00;;;24.61;42.54
17615;BME280;8926;49.720;6.576;2023-05-20T12:49:21;99625.63;;;24.64;42.76
17615;BME280;8926;49.720;6.576;2023-05-20T12:51:47;99631.19;;;24.77;42.18
17615;BME280;8926;49.720;6.576;2023-05-20T12:54:12;99628.56;;;24.69;42.17
17615;BME280;8926;49.720;6.576;2023-05-20T12:56:37;99628.97;;;24.66;42.03
17615;BME280;8926;49.720;6.576;2023-05-20T12:59:04;99620.06;;;24.51;42.10
17615;BME280;8926;49.720;6.576;2023-05-20T13:01:30;99636.97;;;24.43;42.47
17615;BME280;8926;49.720;6.576;2023-05-20T13:03:55;99617.88;;;24.31;42.38
17615;BME280;8926;49.720;6.576;2023-05-20T13:06:20;99629.09;;;24.27;42.49
17615;BME280;8926;49.720;6.576;2023-05-20T13:08:46;99617.66;;;24.10;43.33
17615;BME280;8926;49.720;6.576;2023-05-20T13:11:11;99610.00;;;24.07;43.59
17615;BME280;8926;49.720;6.576;2023-05-20T13:13:37;99616.34;;;24.06;43.11
17615;BME280;8926;49.720;6.576;2023-05-20T13:16:02;99613.03;;;24.04;43.80